Time;durP1;ratioP1;P1;durP2;ratioP2;P2;SDS_P1;SDS_P2;PMS_P1;PMS_P2;Temp;Humidity;BMP_temperature;BMP_pressure;BME280_temperature;BME280_humidity;BME280_pressure;Samples;Min_cycle;Max_cycle;Signal;HPM_P1;HPM_P2
2022/12/17 13:06:55;;;;;;;16.55;7.70;;;24.30;67.20;;;;;;1855218;75;21155;-86
2022/12/17 13:09:32;;;;;;;12.45;6.83;;;24.30;66.90;;;;;;1864320;74;21142;-86
2022/12/17 13:12:19;;;;;;;12.30;7.60;;;24.20;67.00;;;;;;1865019;75;21195;-84
2022/12/17 13:15:01;;;;;;;12.33;7.58;;;24.20;67.20;;;;;;1904400;73;21070;-84
2022/12/17 13:17:40;;;;;;;11.65;8.30;;;24.20;67.30;;;;;;1908861;74;21123;-83
2022/12/17 13:20:31;;;;;;;12.15;8.13;;;24.10;67.50;;;;;;1905562;73;21127;-86
2022/12/17 13:23:12;;;;;;;11.20;8.00;;;24.10;67.90;;;;;;1899592;74;21074;-85
2022/12/17 13:25:43;;;;;;;20.62;9.70;;;24.00;68.60;;;;;;1899639;74;21088;-85
2022/12/17 13:28:31;;;;;;;17.12;9.00;;;24.00;69.70;;;;;;1899697;73;21154;-85
2022/12/17 13:31:04;;;;;;;16.30;8.33;;;23.90;70.30;;;;;;1905167;74;21119;-85
2022/12/17 13:33:54;;;;;;;12.85;8.38;;;23.80;70.90;;;;;;1890762;73;21139;-84
2022/12/17 13:36:40;;;;;;;15.85;8.88;;;23.70;71.40;;;;;;1897272;74;21115;-84
2022/12/17 13:39:33;;;;;;;11.20;8.45;;;23.70;71.80;;;;;;1912480;73;21147;-83
2022/12/17 13:42:04;;;;;;;19.40;8.70;;;23.60;72.00;;;;;;1894978;74;21116;-81
2022/12/17 13:44:43;;;;;;;27.48;10.35;;;23.50;72.10;;;;;;1894837;74;21159;-81
2022/12/17 13:47:22;;;;;;;14.50;9.13;;;23.40;72.30;;;;;;1878888;75;21150;-82
2022/12/17 13:49:55;;;;;;;11.00;8.78;;;23.40;72.50;;;;;;1913745;73;21598;-83
2022/12/17 13:52:31;;;;;;;15.50;8.63;;;23.30;72.50;;;;;;1905412;73;21122;-83
2022/12/17 13:55:12;;;;;;;19.10;9.57;;;23.30;72.90;;;;;;1917967;73;21155;-83
2022/12/17 13:57:47;;;;;;;17.62;9.65;;;23.20;73.00;;;;;;1919952;73;21101;-83
2022/12/17 14:00:26;;;;;;;18.32;9.93;;;23.10;73.40;;;;;;1879553;74;21181;-83
2022/12/17 14:03:02;;;;;;;18.57;9.65;;;23.10;73.70;;;;;;1891438;74;21782;-83
2022/12/17 14:05:36;;;;;;;15.68;9.23;;;23.10;74.90;;;;;;1922167;73;21072;-82
2022/12/17 14:08:07;;;;;;;12.88;8.63;;;23.00;73.90;;;;;;1867221;75;21160;-81
2022/12/17 14:10:46;;;;;;;14.28;8.45;;;23.00;73.60;;;;;;1914934;74;21115;-81
2022/12/17 14:13:18;;;;;;;12.20;9.00;;;22.90;73.90;;;;;;1918564;73;21880;-82
2022/12/17 14:15:51;;;;;;;15.80;9.28;;;22.80;74.00;;;;;;1885779;74;21965;-82
2022/12/17 14:18:25;;;;;;;13.83;8.83;;;22.70;74.10;;;;;;1833300;76;21130;-83
2022/12/17 14:20:56;;;;;;;11.73;9.35;;;22.60;74.40;;;;;;1900567;74;21382;-82
2022/12/17 14:23:29;;;;;;;12.28;9.58;;;22.60;74.30;;;;;;1914375;74;21246;-83
2022/12/17 14:26:07;;;;;;;14.83;9.40;;;22.50;74.50;;;;;;1876699;75;21189;-83
2022/12/17 14:28:46;;;;;;;14.47;9.60;;;22.50;74.60;;;;;;1853892;75;21131;-83
2022/12/17 14:31:30;;;;;;;13.32;9.43;;;22.40;74.70;;;;;;1890456;74;21515;-83
2022/12/17 14:34:06;;;;;;;12.20;9.40;;;22.40;74.80;;;;;;1906156;74;21167;-83
2022/12/17 14:36:38;;;;;;;14.93;10.03;;;22.40;75.00;;;;;;1867099;75;21197;-83
2022/12/17 14:39:29;;;;;;;13.55;9.65;;;22.30;74.80;;;;;;1833280;77;21130;-85
2022/12/17 14:42:32;;;;;;;15.08;9.38;;;22.30;74.90;;;;;;1890533;75;21184;-85
2022/12/17 14:45:05;;;;;;;14.00;9.98;;;22.20;74.70;;;;;;1875620;75;21107;-82
2022/12/17 14:47:37;;;;;;;12.43;9.33;;;22.20;74.90;;;;;;1837745;77;21141;-82
2022/12/17 14:50:14;;;;;;;19.07;10.23;;;22.10;74.90;;;;;;1866513;75;21205;-82
2022/12/17 14:52:53;;;;;;;14.90;9.63;;;22.10;74.90;;;;;;1874561;75;21102;-82
2022/12/17 14:55:33;;;;;;;13.72;8.93;;;22.10;74.80;;;;;;1894265;74;21092;-82
2022/12/17 14:58:13;;;;;;;14.38;9.23;;;22.00;74.90;;;;;;1877699;75;21108;-83
2022/12/17 15:00:53;;;;;;;14.33;8.90;;;21.90;75.10;;;;;;1867125;76;21605;-82
2022/12/17 15:03:30;;;;;;;17.05;9.40;;;21.80;75.20;;;;;;1892287;74;21077;-83
2022/12/17 15:06:06;;;;;;;10.98;8.68;;;21.70;75.50;;;;;;1892657;74;21103;-82
2022/12/17 15:08:41;;;;;;;13.30;9.70;;;21.70;75.70;;;;;;1829151;77;21090;-83
2022/12/17 15:11:14;;;;;;;22.30;9.93;;;21.60;75.90;;;;;;1887436;75;21535;-83
2022/12/17 15:13:48;;;;;;;13.00;9.38;;;21.60;76.30;;;;;;1885347;74;21081;-84
2022/12/17 15:16:21;;;;;;;13.38;10.10;;;21.50;76.20;;;;;;1911658;73;21729;-83
2022/12/17 15:18:52;;;;;;;15.05;9.90;;;21.50;76.00;;;;;;1909274;73;21176;-82
2022/12/17 15:21:23;;;;;;;14.35;10.15;;;21.50;75.90;;;;;;1916707;73;21044;-82
2022/12/17 15:23:54;;;;;;;12.10;9.48;;;21.50;75.90;;;;;;1884571;75;21151;-82
2022/12/17 15:26:25;;;;;;;13.45;9.25;;;21.40;76.10;;;;;;1911233;73;21103;-84
2022/12/17 15:28:55;;;;;;;14.73;10.03;;;21.40;76.00;;;;;;1895334;74;21667;-85
2022/12/17 15:31:26;;;;;;;14.45;9.63;;;21.40;76.10;;;;;;1896584;74;21181;-83
2022/12/17 15:34:00;;;;;;;14.10;10.23;;;21.30;76.30;;;;;;1916163;73;21210;-84
2022/12/17 15:36:33;;;;;;;16.30;10.45;;;21.30;76.50;;;;;;1915849;73;21061;-83
2022/12/17 15:39:05;;;;;;;15.20;10.30;;;21.30;76.80;;;;;;1915732;73;21111;-84
2022/12/17 15:44:24;;;;;;;21.20;10.48;;;21.20;77.00;;;;;;1914975;73;21122;-84
2022/12/17 15:46:58;;;;;;;14.10;10.55;;;21.30;76.70;;;;;;1855543;76;21166;-83
2022/12/17 15:49:29;;;;;;;16.85;10.18;;;21.20;77.10;;;;;;1868193;75;21039;-84
2022/12/17 15:51:59;;;;;;;14.13;10.13;;;21.20;77.10;;;;;;1907647;74;21086;-82
2022/12/17 15:54:32;;;;;;;14.68;9.75;;;21.20;77.00;;;;;;1912012;73;21686;-83
2022/12/17 15:57:02;;;;;;;14.45;10.53;;;21.20;77.00;;;;;;1872918;75;21182;-82
2022/12/17 15:59:33;;;;;;;17.25;10.45;;;21.20;77.20;;;;;;1922987;73;21169;-84
2022/12/17 16:02:04;;;;;;;13.18;9.53;;;21.20;77.20;;;;;;1901163;74;21068;-83
2022/12/17 16:04:36;;;;;;;12.78;10.55;;;21.10;77.40;;;;;;1928036;73;21210;-83
2022/12/17 16:07:07;;;;;;;14.65;10.68;;;21.10;77.40;;;;;;1899283;74;21615;-82
2022/12/17 16:09:38;;;;;;;15.05;10.23;;;21.10;77.40;;;;;;1898572;74;21122;-83
2022/12/17 16:12:08;;;;;;;13.70;10.38;;;21.00;77.50;;;;;;1908531;74;21107;-83
2022/12/17 16:14:39;;;;;;;16.02;10.82;;;21.10;77.80;;;;;;1886871;75;21652;-83
2022/12/17 16:17:10;;;;;;;17.37;10.20;;;21.00;77.80;;;;;;1853432;76;21108;-83
2022/12/17 16:19:41;;;;;;;13.32;10.65;;;21.00;77.70;;;;;;1883787;76;21160;-84
2022/12/17 16:22:12;;;;;;;18.77;10.65;;;21.00;77.80;;;;;;1891244;75;21168;-83
2022/12/17 16:24:43;;;;;;;14.90;10.20;;;21.00;77.80;;;;;;1881525;75;21120;-83
2022/12/17 16:27:15;;;;;;;16.25;9.93;;;21.00;77.70;;;;;;1865163;75;21197;-82
2022/12/17 16:29:47;;;;;;;13.95;10.30;;;20.90;78.60;;;;;;1865790;75;21260;-83
2022/12/17 16:32:18;;;;;;;16.48;10.63;;;20.90;77.70;;;;;;1861068;75;21150;-82
2022/12/17 16:34:48;;;;;;;13.95;10.60;;;20.90;77.70;;;;;;1861701;75;21190;-83
2022/12/17 16:37:20;;;;;;;15.88;10.90;;;20.90;77.80;;;;;;1860816;75;21648;-82
2022/12/17 16:39:51;;;;;;;15.48;11.18;;;20.90;77.80;;;;;;1880896;75;21080;-82
2022/12/17 16:42:24;;;;;;;16.05;11.90;;;20.90;78.00;;;;;;1882213;75;21155;-83
2022/12/17 16:44:56;;;;;;;17.05;11.80;;;20.90;78.00;;;;;;1867738;75;21622;-82
2022/12/17 16:47:26;;;;;;;14.60;11.35;;;20.90;78.20;;;;;;1887840;75;21130;-82
2022/12/17 16:49:59;;;;;;;14.70;12.03;;;20.80;78.10;;;;;;1809289;77;21212;-82
2022/12/17 16:52:34;;;;;;;15.15;12.33;;;20.80;77.80;;;;;;1886361;74;21775;-82
2022/12/17 16:55:05;;;;;;;16.65;12.78;;;20.80;77.70;;;;;;1879398;75;21072;-82
2022/12/17 16:57:36;;;;;;;19.98;12.82;;;20.70;77.60;;;;;;1873399;75;21191;-81
2022/12/17 17:00:08;;;;;;;19.60;13.83;;;20.70;77.60;;;;;;1859995;75;21563;-83
2022/12/17 17:02:38;;;;;;;22.30;15.13;;;20.70;76.50;;;;;;1870381;74;21137;-82
2022/12/17 17:05:09;;;;;;;26.97;17.50;;;20.70;75.60;;;;;;1869871;75;21197;-82
2022/12/17 17:07:40;;;;;;;28.20;16.45;;;20.60;74.90;;;;;;1877149;75;21377;-82
2022/12/17 17:10:11;;;;;;;26.20;17.82;;;20.60;73.50;;;;;;1868148;75;21127;-83
2022/12/17 17:12:42;;;;;;;29.25;17.57;;;20.60;72.80;;;;;;1874039;75;21568;-82
2022/12/17 17:15:14;;;;;;;25.92;17.12;;;20.60;73.00;;;;;;1883404;74;21080;-82
2022/12/17 17:17:45;;;;;;;27.35;18.35;;;20.60;73.70;;;;;;1895519;75;21209;-81
2022/12/17 17:20:17;;;;;;;25.57;17.30;;;20.60;73.70;;;;;;1876074;75;21138;-82
2022/12/17 17:22:49;;;;;;;23.55;16.75;;;20.60;72.80;;;;;;1899206;75;21704;-82
2022/12/17 17:25:21;;;;;;;30.40;17.87;;;20.60;72.20;;;;;;1886965;75;21384;-82
2022/12/17 17:27:51;;;;;;;27.17;17.90;;;20.70;72.20;;;;;;1878783;75;21196;-83
2022/12/17 17:30:22;;;;;;;25.88;17.87;;;20.70;72.30;;;;;;1887422;75;21119;-83
2022/12/17 17:32:53;;;;;;;25.70;17.30;;;20.70;72.50;;;;;;1865545;75;21129;-83
2022/12/17 17:35:24;;;;;;;24.45;17.45;;;20.70;72.60;;;;;;1890063;75;21190;-82
2022/12/17 17:37:54;;;;;;;29.18;18.07;;;20.70;72.50;;;;;;1891453;75;21147;-82
2022/12/17 17:40:27;;;;;;;28.47;18.15;;;20.70;72.10;;;;;;1877390;76;21191;-82
2022/12/17 17:42:57;;;;;;;24.98;17.32;;;20.70;72.10;;;;;;1843910;76;21134;-82
2022/12/17 17:45:28;;;;;;;30.45;18.32;;;20.70;72.20;;;;;;1840551;77;21250;-82
2022/12/17 17:47:59;;;;;;;30.45;18.00;;;20.70;71.30;;;;;;1843047;76;21146;-82
2022/12/17 17:50:30;;;;;;;29.50;18.55;;;20.60;71.30;;;;;;1835860;76;21091;-83
2022/12/17 17:53:00;;;;;;;29.40;18.77;;;20.60;70.90;;;;;;1901814;74;21557;-82
2022/12/17 17:55:32;;;;;;;25.55;17.90;;;20.60;71.20;;;;;;1820869;76;21203;-82
2022/12/17 17:58:03;;;;;;;35.50;18.82;;;20.50;71.10;;;;;;1887410;75;21532;-82
2022/12/17 18:00:34;;;;;;;26.37;19.00;;;20.50;71.00;;;;;;1864626;76;21195;-82
2022/12/17 18:03:04;;;;;;;28.07;19.15;;;20.50;71.10;;;;;;1846394;76;21110;-82
2022/12/17 18:05:41;;;;;;;30.23;19.35;;;20.50;71.30;;;;;;1837405;76;21168;-82
2022/12/17 18:08:11;;;;;;;30.35;20.37;;;20.50;71.20;;;;;;1834596;76;21145;-82
2022/12/17 18:10:42;;;;;;;29.90;19.98;;;20.50;71.60;;;;;;1857036;76;21191;-81
2022/12/17 18:16:04;;;;;;;33.13;20.40;;;20.50;70.00;;;;;;1854973;75;21085;-82
2022/12/17 18:18:36;;;;;;;31.57;22.50;;;20.40;69.60;;;;;;1879970;75;21142;-82
2022/12/17 18:21:15;;;;;;;38.10;21.73;;;20.40;69.10;;;;;;1878920;75;21571;-82
2022/12/17 18:23:46;;;;;;;33.75;21.33;;;20.50;68.60;;;;;;1897020;75;21133;-82
2022/12/17 18:26:21;;;;;;;34.92;21.48;;;20.40;68.40;;;;;;1890212;75;21578;-82
2022/12/17 18:28:51;;;;;;;35.23;22.35;;;20.40;68.10;;;;;;1896774;74;21125;-83
2022/12/17 18:31:24;;;;;;;35.43;22.25;;;20.30;67.50;;;;;;1890831;75;21102;-82
2022/12/17 18:33:57;;;;;;;37.60;21.82;;;20.30;67.80;;;;;;1907811;74;21165;-83
2022/12/17 18:36:31;;;;;;;45.67;23.35;;;20.20;67.90;;;;;;1902672;75;21096;-83
2022/12/17 18:39:07;;;;;;;35.30;21.45;;;20.20;68.10;;;;;;1922459;74;21149;-84
2022/12/17 18:44:27;;;;;;;38.35;22.00;;;20.20;68.60;;;;;;1915503;73;21192;-82
2022/12/17 18:46:58;;;;;;;37.33;22.30;;;20.20;68.80;;;;;;1852145;77;21175;-82
2022/12/17 18:49:29;;;;;;;38.45;22.22;;;20.20;68.80;;;;;;1916922;75;21586;-82
2022/12/17 18:52:00;;;;;;;35.73;23.02;;;20.10;68.80;;;;;;1909723;74;21094;-81
2022/12/17 18:54:32;;;;;;;35.13;22.55;;;20.10;69.00;;;;;;1932461;73;21186;-82
2022/12/17 18:57:03;;;;;;;31.30;21.50;;;20.10;69.40;;;;;;1907813;73;21102;-82
2022/12/17 18:59:34;;;;;;;32.28;21.55;;;20.10;69.60;;;;;;1917027;75;21195;-82
2022/12/17 19:02:04;;;;;;;32.55;22.30;;;20.10;69.60;;;;;;1917483;74;21122;-82
2022/12/17 19:04:35;;;;;;;34.67;21.95;;;20.10;69.40;;;;;;1915135;73;21289;-81
2022/12/17 19:07:06;;;;;;;39.95;21.90;;;20.10;69.40;;;;;;1913233;75;21142;-82
2022/12/17 19:09:39;;;;;;;38.40;21.75;;;20.10;69.70;;;;;;1908478;75;21567;-81
2022/12/17 19:12:11;;;;;;;33.98;21.23;;;20.00;69.10;;;;;;1913607;73;21139;-80
2022/12/17 19:14:42;;;;;;;38.02;21.90;;;20.00;69.20;;;;;;1926011;73;21150;-81
2022/12/17 19:17:14;;;;;;;39.63;22.55;;;20.00;69.40;;;;;;1912722;73;21057;-80
2022/12/17 19:19:47;;;;;;;37.42;22.00;;;20.00;69.00;;;;;;1905379;74;21185;-83
2022/12/17 19:22:18;;;;;;;36.17;22.90;;;20.00;69.20;;;;;;1909289;75;21538;-81
2022/12/17 19:24:49;;;;;;;39.78;23.77;;;20.00;69.10;;;;;;1917881;74;21039;-82
2022/12/17 19:27:20;;;;;;;35.28;22.65;;;20.00;69.00;;;;;;1908761;74;21715;-82
2022/12/17 19:29:51;;;;;;;36.77;23.02;;;20.00;68.60;;;;;;1906446;74;21166;-84
2022/12/17 19:32:23;;;;;;;37.67;23.70;;;20.00;68.60;;;;;;1903254;74;21220;-82
2022/12/17 19:34:54;;;;;;;40.85;21.55;;;20.00;68.60;;;;;;1897125;74;21075;-82
2022/12/17 19:37:25;;;;;;;38.78;22.82;;;20.00;68.30;;;;;;1922432;74;21135;-82
2022/12/17 19:39:55;;;;;;;33.95;22.17;;;19.90;68.80;;;;;;1906704;75;21165;-80
2022/12/17 19:42:29;;;;;;;39.15;23.60;;;19.90;68.10;;;;;;1916068;74;21625;-81
2022/12/17 19:45:03;;;;;;;36.05;21.37;;;19.90;67.90;;;;;;1907314;74;21202;-81
2022/12/17 19:47:34;;;;;;;34.03;22.75;;;19.90;67.80;;;;;;1895260;74;21608;-81
2022/12/17 19:50:05;;;;;;;42.00;23.67;;;19.90;68.10;;;;;;1899708;74;21056;-82
2022/12/17 19:52:37;;;;;;;38.17;22.77;;;19.80;68.20;;;;;;1907184;74;21248;-83
2022/12/17 19:55:09;;;;;;;33.80;23.20;;;19.80;68.60;;;;;;1894359;74;21122;-82
2022/12/17 19:57:39;;;;;;;37.15;22.87;;;19.80;68.50;;;;;;1901478;74;21638;-82
2022/12/17 20:00:12;;;;;;;34.55;21.70;;;19.80;68.60;;;;;;1906640;75;21219;-81
2022/12/17 20:02:43;;;;;;;39.35;23.00;;;19.80;68.70;;;;;;1905765;74;21122;-83
2022/12/17 20:05:14;;;;;;;37.67;22.10;;;19.70;68.70;;;;;;1903649;74;21210;-83
2022/12/17 20:07:45;;;;;;;40.12;22.73;;;19.80;69.00;;;;;;1897596;75;21241;-83
2022/12/17 20:10:16;;;;;;;38.60;23.38;;;19.80;69.00;;;;;;1891439;75;21115;-82
2022/12/17 20:12:47;;;;;;;41.33;22.77;;;19.80;68.90;;;;;;1900648;75;21623;-83
2022/12/17 20:15:18;;;;;;;40.43;23.07;;;19.70;68.90;;;;;;1906462;74;21602;-83
2022/12/17 20:17:49;;;;;;;40.83;24.20;;;19.70;69.00;;;;;;1882806;74;21636;-82
2022/12/17 20:20:21;;;;;;;42.20;22.62;;;19.70;69.30;;;;;;1900222;74;21067;-81
2022/12/17 20:22:53;;;;;;;36.25;22.55;;;19.70;69.70;;;;;;1896900;74;21466;-82
2022/12/17 20:25:26;;;;;;;36.35;23.02;;;19.70;70.80;;;;;;1891651;75;21122;-82
2022/12/17 20:27:57;;;;;;;40.08;23.73;;;19.70;70.10;;;;;;1828664;77;21092;-83
2022/12/17 20:30:33;;;;;;;40.33;24.60;;;19.60;70.20;;;;;;1921291;73;21067;-81
2022/12/17 20:33:04;;;;;;;37.48;23.35;;;19.60;70.30;;;;;;1914280;73;21170;-79
2022/12/17 20:35:38;;;;;;;38.17;23.42;;;19.60;70.50;;;;;;1901001;74;21071;-83
2022/12/17 20:38:08;;;;;;;35.48;23.25;;;19.60;70.60;;;;;;1893842;75;21111;-82
2022/12/17 20:40:42;;;;;;;39.13;24.30;;;19.60;70.70;;;;;;1889508;75;21133;-83
2022/12/17 20:43:19;;;;;;;43.92;23.92;;;19.50;70.70;;;;;;1899690;75;21197;-81
2022/12/17 20:45:50;;;;;;;34.88;23.02;;;19.50;70.70;;;;;;1889174;74;21807;-81
2022/12/17 20:48:24;;;;;;;43.23;24.60;;;19.50;70.50;;;;;;1888102;75;21686;-82
2022/12/17 20:50:55;;;;;;;37.90;24.10;;;19.60;73.20;;;;;;1842120;76;21136;-82
2022/12/17 20:53:26;;;;;;;40.45;24.15;;;19.50;70.20;;;;;;1910525;75;21753;-82
2022/12/17 20:56:04;;;;;;;41.28;23.35;;;19.50;70.40;;;;;;1917360;73;21562;-82
2022/12/17 20:58:38;;;;;;;44.75;24.02;;;19.50;70.40;;;;;;1922045;73;21157;-83
2022/12/17 21:01:15;;;;;;;38.33;24.23;;;19.40;69.80;;;;;;1909386;74;21184;-82
2022/12/17 21:03:48;;;;;;;39.57;24.20;;;19.40;69.80;;;;;;1910259;74;21071;-82
2022/12/17 21:06:22;;;;;;;44.48;23.62;;;19.40;69.70;;;;;;1902758;74;21125;-82
2022/12/17 21:08:55;;;;;;;39.67;24.40;;;19.40;69.70;;;;;;1911956;73;21172;-81
2022/12/17 21:11:28;;;;;;;45.83;24.47;;;19.40;69.60;;;;;;1904245;75;21684;-82
2022/12/17 21:14:01;;;;;;;43.33;25.30;;;19.30;69.70;;;;;;1932857;73;21103;-82
2022/12/17 21:16:33;;;;;;;41.68;25.70;;;19.40;69.80;;;;;;1912088;73;21106;-83
2022/12/17 21:19:05;;;;;;;47.43;26.73;;;19.40;69.70;;;;;;1926362;73;21208;-83
2022/12/17 21:21:38;;;;;;;43.08;25.37;;;19.30;69.50;;;;;;1897494;75;21085;-83
2022/12/17 21:24:10;;;;;;;43.75;24.00;;;19.30;69.30;;;;;;1885288;75;21129;-83
2022/12/17 21:26:44;;;;;;;40.12;23.85;;;19.30;69.40;;;;;;1850159;76;21081;-83
2022/12/17 21:29:18;;;;;;;33.92;23.75;;;19.30;69.20;;;;;;1885621;74;21129;-82
2022/12/17 21:31:51;;;;;;;41.23;23.90;;;19.30;70.30;;;;;;1864718;74;21074;-83
2022/12/17 21:34:28;;;;;;;41.65;24.10;;;19.30;69.30;;;;;;1909374;75;21100;-83
2022/12/17 21:36:55;;;;;;;41.05;23.92;;;19.20;69.20;;;;;;1903498;75;21138;-83
2022/12/17 21:39:26;;;;;;;40.17;24.30;;;19.30;68.90;;;;;;1916264;73;21609;-82
2022/12/17 21:44:45;;;;;;;41.77;23.98;;;19.20;67.80;;;;;;1918617;75;21117;-83
2022/12/17 21:47:16;;;;;;;38.48;23.05;;;19.20;68.50;;;;;;1915705;73;21141;-82
2022/12/17 21:49:47;;;;;;;47.33;24.00;;;19.20;68.60;;;;;;1922070;73;21098;-81
2022/12/17 21:52:18;;;;;;;39.45;23.52;;;19.20;68.80;;;;;;1918358;73;21129;-83
2022/12/17 21:54:49;;;;;;;40.90;23.55;;;19.10;68.40;;;;;;1907982;75;21063;-82
2022/12/17 21:57:21;;;;;;;36.80;22.55;;;19.10;68.10;;;;;;1905919;75;21048;-82
2022/12/17 21:59:52;;;;;;;42.60;24.45;;;19.10;68.30;;;;;;1914985;73;21224;-82
2022/12/17 22:02:23;;;;;;;36.38;22.05;;;19.10;68.40;;;;;;1894115;75;21162;-82
2022/12/17 22:04:54;;;;;;;37.38;24.02;;;19.00;68.40;;;;;;1936218;73;21672;-82
2022/12/17 22:07:29;;;;;;;38.00;22.98;;;19.00;68.30;;;;;;1952064;73;21070;-82
2022/12/17 22:10:01;;;;;;;42.33;22.60;;;19.00;68.50;;;;;;1917936;73;21163;-82
2022/12/17 22:15:22;;;;;;;46.00;24.32;;;19.00;68.80;;;;;;1906523;73;21132;-83
2022/12/17 22:17:56;;;;;;;44.00;24.52;;;19.00;68.60;;;;;;1905174;75;21225;-85
2022/12/17 22:20:28;;;;;;;41.73;25.68;;;19.00;68.30;;;;;;1861494;75;21666;-83
2022/12/17 22:22:59;;;;;;;46.75;25.60;;;19.00;68.40;;;;;;1852603;75;21084;-82
2022/12/17 22:25:42;;;;;;;42.65;24.65;;;19.00;68.80;;;;;;1882103;75;21114;-82
2022/12/17 22:28:13;;;;;;;41.45;23.38;;;19.00;68.80;;;;;;1834269;77;21156;-81
2022/12/17 22:33:32;;;;;;;37.38;25.17;;;19.00;69.00;;;;;;1774893;79;21592;-83
2022/12/17 22:36:05;;;;;;;43.25;25.20;;;19.00;69.30;;;;;;1816271;78;21117;-82
2022/12/17 22:38:37;;;;;;;43.90;26.17;;;19.00;69.30;;;;;;1828451;78;21227;-83
2022/12/17 22:43:28;;;;;;;42.43;25.88;;;19.00;69.40;;;;;;1802247;77;21157;-82
2022/12/17 22:43:43;;;;;;;42.15;26.05;;;19.00;69.60;;;;;;1888229;74;21083;-81
2022/12/17 22:46:15;;;;;;;49.93;25.80;;;19.00;69.90;;;;;;1895735;74;21575;-83
2022/12/17 22:48:46;;;;;;;44.55;25.35;;;19.00;70.10;;;;;;1860224;75;21143;-81
2022/12/17 22:51:19;;;;;;;49.27;26.00;;;19.00;69.80;;;;;;1873461;75;21292;-82
2022/12/17 22:53:53;;;;;;;44.77;26.27;;;19.10;70.00;;;;;;1846292;77;21208;-82
2022/12/17 22:56:24;;;;;;;42.75;26.95;;;19.10;69.40;;;;;;1817650;76;21578;-82
2022/12/17 22:58:57;;;;;;;47.98;25.90;;;19.00;69.30;;;;;;1822909;77;21689;-83
2022/12/17 23:01:28;;;;;;;45.60;26.97;;;19.00;69.30;;;;;;1858173;75;21130;-81
2022/12/17 23:04:00;;;;;;;42.35;27.02;;;19.00;69.50;;;;;;1871256;75;21119;-82
2022/12/17 23:06:31;;;;;;;42.43;27.45;;;19.00;69.60;;;;;;1877739;74;21257;-82
2022/12/17 23:09:02;;;;;;;45.60;25.65;;;19.00;69.80;;;;;;1882027;75;21615;-83
2022/12/17 23:11:33;;;;;;;46.63;26.65;;;18.90;69.70;;;;;;1876747;75;21151;-82
2022/12/17 23:14:05;;;;;;;39.67;26.10;;;18.90;69.90;;;;;;1887017;75;21052;-82
2022/12/17 23:16:39;;;;;;;45.80;27.65;;;18.80;69.90;;;;;;1879240;74;21222;-83
2022/12/17 23:19:10;;;;;;;44.75;26.07;;;18.90;69.90;;;;;;1870126;76;21092;-83
2022/12/17 23:21:41;;;;;;;46.28;26.50;;;18.80;70.00;;;;;;1799091;78;21138;-83
2022/12/17 23:24:12;;;;;;;44.00;27.00;;;18.80;70.00;;;;;;1867718;75;21174;-83
2022/12/17 23:26:46;;;;;;;49.45;27.98;;;18.80;69.80;;;;;;1885831;75;21041;-83
2022/12/17 23:29:17;;;;;;;44.80;26.75;;;18.80;69.80;;;;;;1884247;75;21088;-82
2022/12/17 23:31:48;;;;;;;45.90;24.90;;;18.70;70.10;;;;;;1881407;75;21155;-82
2022/12/17 23:34:19;;;;;;;49.13;28.50;;;18.70;70.20;;;;;;1841302;76;21165;-83
2022/12/17 23:36:50;;;;;;;49.05;28.12;;;18.80;70.20;;;;;;1885267;73;21080;-82
2022/12/17 23:39:21;;;;;;;56.35;30.62;;;18.80;70.00;;;;;;1879999;73;21182;-84
2022/12/17 23:41:53;;;;;;;48.90;29.48;;;18.80;69.80;;;;;;1881185;75;21167;-82
2022/12/17 23:44:24;;;;;;;50.12;29.65;;;18.80;70.00;;;;;;1901493;74;21079;-83
2022/12/17 23:46:58;;;;;;;47.70;27.67;;;18.70;69.70;;;;;;1889727;74;21143;-84
2022/12/17 23:49:29;;;;;;;49.30;26.57;;;18.70;69.80;;;;;;1879047;74;21096;-84
2022/12/17 23:52:00;;;;;;;44.48;27.90;;;18.70;69.90;;;;;;1895106;74;21116;-84
2022/12/17 23:54:31;;;;;;;47.23;28.23;;;18.70;69.80;;;;;;1896346;74;21190;-83
2022/12/17 23:57:02;;;;;;;48.33;27.85;;;18.70;70.10;;;;;;1882012;74;21056;-82
2022/12/17 23:59:33;;;;;;;50.28;28.07;;;18.60;70.10;;;;;;1878291;74;21143;-83
